createdAt,value
2022-10-02T00:00:59.933Z,12.92
2022-10-02T00:01:59.997Z,12.92
2022-10-02T00:02:59.923Z,12.95
2022-10-02T00:03:59.997Z,12.92
2022-10-02T00:04:59.892Z,12.92
2022-10-02T00:05:59.894Z,12.92
2022-10-02T00:06:59.866Z,12.92
2022-10-02T00:07:59.865Z,12.92
2022-10-02T00:08:59.870Z,12.92
2022-10-02T00:09:59.835Z,12.93
2022-10-02T00:11:00.081Z,12.95
2022-10-02T00:11:59.828Z,12.95
2022-10-02T00:12:59.851Z,12.95
2022-10-02T00:13:59.803Z,12.96
2022-10-02T00:14:59.784Z,12.96
2022-10-02T00:15:59.903Z,12.97
2022-10-02T00:16:59.767Z,13.03
2022-10-02T00:17:59.760Z,13.04
2022-10-02T00:18:59.737Z,13.04
2022-10-02T00:19:59.750Z,13.05
2022-10-02T00:20:59.727Z,13.08
2022-10-02T00:21:59.720Z,13.08
2022-10-02T00:22:59.708Z,13.08
2022-10-02T00:23:59.710Z,13.07
2022-10-02T00:24:59.678Z,13.05
2022-10-02T00:25:59.669Z,13.07
2022-10-02T00:26:59.848Z,13.08
2022-10-02T00:27:59.683Z,13.10
2022-10-02T00:28:59.631Z,13.10
2022-10-02T00:29:59.642Z,13.08
2022-10-02T00:30:59.619Z,13.11
2022-10-02T00:31:59.696Z,13.08
2022-10-02T00:32:59.592Z,13.08
2022-10-02T00:33:59.609Z,13.10
2022-10-02T00:35:00.032Z,13.07
2022-10-02T00:35:59.563Z,13.08
2022-10-02T00:36:59.553Z,13.05
2022-10-02T00:37:59.551Z,13.07
2022-10-02T00:38:59.534Z,13.04
2022-10-02T00:39:59.524Z,13.03
2022-10-02T00:40:59.505Z,13.04
2022-10-02T00:41:59.505Z,13.04
2022-10-02T00:42:59.496Z,13.04
2022-10-02T00:43:59.485Z,13.05
2022-10-02T00:44:59.474Z,13.01
2022-10-02T00:45:59.511Z,13.00
2022-10-02T00:46:59.447Z,13.00
2022-10-02T00:47:59.436Z,12.96
2022-10-02T00:48:59.428Z,12.96
2022-10-02T00:49:59.417Z,12.95
2022-10-02T00:50:59.409Z,12.95
2022-10-02T00:51:59.413Z,12.95
2022-10-02T00:52:59.386Z,12.96
2022-10-02T00:53:59.378Z,12.96
2022-10-02T00:54:59.369Z,12.95
2022-10-02T00:55:59.359Z,12.95
2022-10-02T00:56:59.339Z,12.95
2022-10-02T00:57:59.361Z,12.95
2022-10-02T00:58:59.319Z,12.92
2022-10-02T00:59:59.318Z,12.92
2022-10-02T01:00:59.390Z,12.92
2022-10-02T01:01:59.318Z,12.93
2022-10-02T01:02:59.281Z,12.90
2022-10-02T01:03:59.273Z,12.92
2022-10-02T01:04:59.265Z,12.95
2022-10-02T01:05:59.251Z,12.93
2022-10-02T01:06:59.233Z,12.92
2022-10-02T01:07:59.234Z,12.90
2022-10-02T01:08:59.217Z,12.93
2022-10-02T01:09:59.313Z,12.92
2022-10-02T01:10:59.194Z,12.93
2022-10-02T01:11:59.192Z,12.93
2022-10-02T01:12:59.197Z,12.92
2022-10-02T01:13:59.199Z,12.90
2022-10-02T01:14:59.167Z,12.89
2022-10-02T01:15:59.250Z,12.90
2022-10-02T01:16:59.182Z,12.89
2022-10-02T01:17:59.126Z,12.92
2022-10-02T01:18:59.112Z,12.93
2022-10-02T01:19:59.117Z,12.92
2022-10-02T01:20:59.086Z,12.95
2022-10-02T01:21:59.123Z,12.93
2022-10-02T01:22:59.067Z,12.95
2022-10-02T01:23:59.078Z,12.92
2022-10-02T01:24:59.098Z,12.92
2022-10-02T01:25:59.076Z,12.93
2022-10-02T01:26:59.029Z,12.92
2022-10-02T01:27:59.091Z,12.89
2022-10-02T01:28:59.037Z,12.90
2022-10-02T01:29:59.009Z,12.87
2022-10-02T01:30:58.988Z,12.90
2022-10-02T01:31:59.035Z,12.90
2022-10-02T01:32:59.360Z,12.87
2022-10-02T01:33:58.980Z,12.87
2022-10-02T01:34:58.960Z,12.87
2022-10-02T01:35:58.938Z,12.86
2022-10-02T01:36:58.923Z,12.86
2022-10-02T01:37:59.152Z,12.85
2022-10-02T01:38:58.900Z,12.86
2022-10-02T01:39:58.900Z,12.87
2022-10-02T01:40:58.894Z,12.86
2022-10-02T01:41:58.873Z,12.85
2022-10-02T01:42:58.862Z,12.85
2022-10-02T01:43:58.854Z,12.86
2022-10-02T01:44:58.841Z,12.85
2022-10-02T01:45:58.979Z,12.85
2022-10-02T01:46:58.935Z,12.83
2022-10-02T01:47:58.813Z,12.85
2022-10-02T01:48:58.795Z,12.83
2022-10-02T01:49:58.788Z,12.85
2022-10-02T01:50:58.776Z,12.85
2022-10-02T01:51:58.782Z,12.86
2022-10-02T01:52:58.766Z,12.86
2022-10-02T01:53:58.746Z,12.83
2022-10-02T01:54:58.736Z,12.85
2022-10-02T01:55:58.727Z,12.85
2022-10-02T01:56:58.777Z,12.85
2022-10-02T01:57:58.717Z,12.85
2022-10-02T01:58:58.707Z,12.83
2022-10-02T01:59:58.688Z,12.85
2022-10-02T02:00:58.691Z,12.83
2022-10-02T02:01:58.703Z,12.86
2022-10-02T02:02:58.647Z,12.86
2022-10-02T02:03:58.657Z,12.87
2022-10-02T02:04:58.638Z,12.89
2022-10-02T02:05:58.629Z,12.87
2022-10-02T02:06:58.671Z,12.85
2022-10-02T02:07:58.600Z,12.86
2022-10-02T02:09:01.874Z,12.85
2022-10-02T02:09:58.607Z,12.86
2022-10-02T02:10:58.574Z,12.85
2022-10-02T02:11:58.562Z,12.86
2022-10-02T02:12:58.552Z,12.85
2022-10-02T02:13:58.552Z,12.83
2022-10-02T02:14:58.522Z,12.85
2022-10-02T02:15:58.549Z,12.83
2022-10-02T02:16:58.535Z,12.85
2022-10-02T02:17:58.503Z,12.82
2022-10-02T02:18:58.497Z,12.83
2022-10-02T02:19:58.474Z,12.85
2022-10-02T02:20:58.457Z,12.83
2022-10-02T02:21:58.481Z,12.85
2022-10-02T02:22:58.443Z,12.85
2022-10-02T02:23:58.435Z,12.85
2022-10-02T02:24:58.426Z,12.83
2022-10-02T02:25:58.444Z,12.83
2022-10-02T02:26:58.403Z,12.85
2022-10-02T02:27:58.509Z,12.83
2022-10-02T02:28:58.376Z,12.83
2022-10-02T02:29:58.378Z,12.83
2022-10-02T02:30:58.367Z,12.83
2022-10-02T02:31:58.400Z,12.79
2022-10-02T02:32:58.339Z,12.82
2022-10-02T02:33:58.335Z,12.82
2022-10-02T02:34:58.318Z,12.82
2022-10-02T02:35:59.122Z,12.78
2022-10-02T02:36:58.299Z,12.78
2022-10-02T02:37:58.289Z,12.78
2022-10-02T02:38:58.277Z,12.75
2022-10-02T02:39:58.268Z,12.75
2022-10-02T02:40:58.260Z,12.77
2022-10-02T02:41:58.251Z,12.75
2022-10-02T02:42:58.245Z,12.75
2022-10-02T02:43:58.253Z,12.77
2022-10-02T02:44:58.230Z,12.74
2022-10-02T02:45:58.231Z,12.74
2022-10-02T02:46:58.192Z,12.72
2022-10-02T02:47:58.201Z,12.72
2022-10-02T02:48:58.181Z,12.71
2022-10-02T02:49:58.173Z,12.72
2022-10-02T02:50:58.152Z,12.72
2022-10-02T02:51:58.143Z,12.72
2022-10-02T02:52:58.136Z,12.71
2022-10-02T02:53:58.133Z,12.70
2022-10-02T02:54:58.104Z,12.67
2022-10-02T02:55:58.144Z,12.68
2022-10-02T02:56:58.104Z,12.67
2022-10-02T02:57:58.088Z,12.67
2022-10-02T02:58:58.106Z,12.68
2022-10-02T02:59:58.075Z,12.68
2022-10-02T03:00:58.082Z,12.67
2022-10-02T03:01:58.103Z,12.68
2022-10-02T03:02:58.051Z,12.67
2022-10-02T03:03:58.047Z,12.67
2022-10-02T03:04:58.005Z,12.67
2022-10-02T03:05:58.006Z,12.65
2022-10-02T03:06:57.985Z,12.65
2022-10-02T03:07:58.024Z,12.62
2022-10-02T03:08:57.967Z,12.64
2022-10-02T03:09:57.959Z,12.62
2022-10-02T03:10:57.960Z,12.62
2022-10-02T03:11:57.939Z,12.65
2022-10-02T03:12:58.139Z,12.62
2022-10-02T03:13:57.918Z,12.60
2022-10-02T03:14:57.913Z,12.59
2022-10-02T03:15:57.994Z,12.56
2022-10-02T03:16:57.899Z,12.54
2022-10-02T03:17:57.861Z,12.56
2022-10-02T03:18:57.870Z,12.54
2022-10-02T03:19:57.841Z,12.54
2022-10-02T03:20:57.851Z,12.54
2022-10-02T03:21:57.832Z,12.52
2022-10-02T03:22:57.822Z,12.53
2022-10-02T03:23:57.802Z,12.54
2022-10-02T03:24:57.804Z,12.56
2022-10-02T03:25:57.783Z,12.59
2022-10-02T03:26:57.795Z,12.56
2022-10-02T03:27:57.882Z,12.57
2022-10-02T03:28:57.923Z,12.59
2022-10-02T03:29:57.744Z,12.56
2022-10-02T03:30:57.747Z,12.57
2022-10-02T03:31:57.727Z,12.60
2022-10-02T03:32:57.727Z,12.59
2022-10-02T03:33:57.723Z,12.60
2022-10-02T03:34:57.706Z,12.62
2022-10-02T03:35:57.681Z,12.62
2022-10-02T03:36:57.676Z,12.60
2022-10-02T03:37:57.656Z,12.64
2022-10-02T03:39:23.179Z,12.64
2022-10-02T03:39:58.675Z,12.64
2022-10-02T03:40:57.635Z,12.64
2022-10-02T03:41:57.654Z,12.65
2022-10-02T03:42:57.628Z,12.65
2022-10-02T03:43:57.598Z,12.64
2022-10-02T03:44:57.597Z,12.64
2022-10-02T03:45:57.577Z,12.64
2022-10-02T03:46:57.581Z,12.64
2022-10-02T03:47:57.559Z,12.62
2022-10-02T03:48:57.557Z,12.60
2022-10-02T03:49:57.540Z,12.59
2022-10-02T03:50:57.541Z,12.60
2022-10-02T03:51:57.522Z,12.59
2022-10-02T03:52:57.511Z,12.59
2022-10-02T03:53:57.495Z,12.57
2022-10-02T03:54:57.490Z,12.57
2022-10-02T03:55:57.514Z,12.59
2022-10-02T03:56:57.472Z,12.54
2022-10-02T03:57:57.473Z,12.57
2022-10-02T03:58:57.453Z,12.54
2022-10-02T03:59:57.454Z,12.56
2022-10-02T04:00:57.431Z,12.54
2022-10-02T04:01:57.586Z,12.56
2022-10-02T04:02:57.616Z,12.57
2022-10-02T04:03:57.489Z,12.56
2022-10-02T04:04:57.394Z,12.54
2022-10-02T04:05:57.365Z,12.54
2022-10-02T04:06:57.366Z,12.57
2022-10-02T04:07:57.356Z,12.60
2022-10-02T04:08:57.338Z,12.60
2022-10-02T04:09:57.369Z,12.62
2022-10-02T04:10:57.327Z,12.60
2022-10-02T04:11:57.316Z,12.64
2022-10-02T04:12:57.298Z,12.60
2022-10-02T04:13:57.312Z,12.60
2022-10-02T04:14:57.288Z,12.59
2022-10-02T04:15:57.287Z,12.57
2022-10-02T04:16:57.267Z,12.57
2022-10-02T04:17:59.143Z,12.57
2022-10-02T04:18:57.237Z,12.54
2022-10-02T04:19:57.232Z,12.57
2022-10-02T04:20:57.222Z,12.54
2022-10-02T04:21:57.201Z,12.54
2022-10-02T04:22:57.218Z,12.56
2022-10-02T04:23:57.181Z,12.54
2022-10-02T04:24:57.171Z,12.54
2022-10-02T04:25:57.169Z,12.53
2022-10-02T04:26:57.149Z,12.56
2022-10-02T04:27:57.184Z,12.54
2022-10-02T04:28:57.136Z,12.54
2022-10-02T04:29:57.122Z,12.54
2022-10-02T04:30:57.112Z,12.54
2022-10-02T04:31:57.124Z,12.56
2022-10-02T04:32:57.122Z,12.57
2022-10-02T04:33:57.073Z,12.54
2022-10-02T04:34:57.883Z,12.56
2022-10-02T04:35:57.053Z,12.56
2022-10-02T04:36:57.062Z,12.56
2022-10-02T04:37:57.034Z,12.56
2022-10-02T04:38:57.076Z,12.53
2022-10-02T04:39:57.013Z,12.56
2022-10-02T04:40:57.009Z,12.54
2022-10-02T04:41:57.004Z,12.54
2022-10-02T04:42:56.993Z,12.54
2022-10-02T04:43:57.116Z,12.54
2022-10-02T04:44:56.967Z,12.56
2022-10-02T04:45:56.986Z,12.56
2022-10-02T04:46:56.963Z,12.57
2022-10-02T04:47:57.747Z,12.56
2022-10-02T04:48:56.943Z,12.57
2022-10-02T04:49:56.908Z,12.59
2022-10-02T04:50:56.916Z,12.60
2022-10-02T04:51:57.019Z,12.59
2022-10-02T04:52:56.920Z,12.60
2022-10-02T04:53:56.869Z,12.62
2022-10-02T04:54:56.867Z,12.59
2022-10-02T04:55:56.868Z,12.62
2022-10-02T04:56:57.651Z,12.64
2022-10-02T04:57:56.841Z,12.62
2022-10-02T04:58:56.823Z,12.62
2022-10-02T04:59:56.808Z,12.62
2022-10-02T05:00:56.830Z,12.62
2022-10-02T05:01:57.455Z,12.67
2022-10-02T05:02:56.783Z,12.70
2022-10-02T05:03:59.666Z,12.68
2022-10-02T05:04:57.771Z,12.70
2022-10-02T05:05:56.743Z,12.68
2022-10-02T05:06:56.741Z,12.70
2022-10-02T05:07:56.746Z,12.67
2022-10-02T05:08:56.726Z,12.70
2022-10-02T05:09:56.706Z,12.71
2022-10-02T05:10:56.815Z,12.71
2022-10-02T05:11:56.684Z,12.71
2022-10-02T05:12:56.675Z,12.70
2022-10-02T05:13:56.658Z,12.72
2022-10-02T05:14:56.655Z,12.71
2022-10-02T05:15:57.509Z,12.71
2022-10-02T05:16:56.700Z,12.72
2022-10-02T05:17:56.624Z,12.72
2022-10-02T05:18:56.627Z,12.74
2022-10-02T05:19:56.597Z,12.74
2022-10-02T05:20:56.586Z,12.72
2022-10-02T05:21:56.574Z,12.74
2022-10-02T05:22:56.675Z,12.72
2022-10-02T05:23:56.558Z,12.72
2022-10-02T05:24:56.548Z,12.71
2022-10-02T05:25:56.529Z,12.70
2022-10-02T05:26:56.528Z,12.70
2022-10-02T05:27:56.581Z,12.67
2022-10-02T05:28:56.660Z,12.67
2022-10-02T05:29:56.496Z,12.67
2022-10-02T05:30:56.494Z,12.67
2022-10-02T05:31:56.473Z,12.65
2022-10-02T05:32:56.469Z,12.67
2022-10-02T05:33:56.481Z,12.67
2022-10-02T05:34:56.443Z,12.68
2022-10-02T05:35:56.452Z,12.67
2022-10-02T05:36:56.429Z,12.64
2022-10-02T05:37:56.422Z,12.65
2022-10-02T05:38:56.409Z,12.67
2022-10-02T05:39:56.401Z,12.67
2022-10-02T05:40:56.383Z,12.70
2022-10-02T05:41:56.375Z,12.72
2022-10-02T05:42:56.439Z,12.75
2022-10-02T05:43:56.382Z,12.74
2022-10-02T05:44:56.369Z,12.77
2022-10-02T05:45:56.325Z,12.78
2022-10-02T05:46:56.413Z,12.82
2022-10-02T05:47:56.318Z,12.79
2022-10-02T05:48:56.475Z,12.82
2022-10-02T05:49:56.319Z,12.83
2022-10-02T05:50:56.306Z,12.83
2022-10-02T05:51:56.285Z,12.85
2022-10-02T05:52:56.268Z,12.86
2022-10-02T05:53:56.244Z,12.86
2022-10-02T05:54:56.256Z,12.86
2022-10-02T05:55:56.227Z,12.87
2022-10-02T05:56:56.358Z,12.89
2022-10-02T05:57:56.205Z,12.90
2022-10-02T05:58:56.196Z,12.92
2022-10-02T05:59:56.279Z,12.92
2022-10-02T06:00:56.220Z,12.93
2022-10-02T06:01:56.208Z,12.95
2022-10-02T06:02:56.149Z,12.97
2022-10-02T06:03:56.149Z,12.97
2022-10-02T06:04:56.139Z,12.97
2022-10-02T06:05:56.121Z,13.01
2022-10-02T06:06:56.163Z,13.01
2022-10-02T06:07:56.114Z,13.03
2022-10-02T06:08:56.134Z,13.03
2022-10-02T06:09:56.172Z,13.04
2022-10-02T06:10:56.081Z,13.07
2022-10-02T06:11:56.053Z,13.07
2022-10-02T06:12:56.052Z,13.08
2022-10-02T06:13:56.032Z,13.08
2022-10-02T06:14:56.833Z,13.10
2022-10-02T06:15:56.033Z,13.11
2022-10-02T06:16:56.078Z,13.12
2022-10-02T06:17:56.029Z,13.12
2022-10-02T06:18:55.992Z,13.15
2022-10-02T06:19:57.874Z,13.15
2022-10-02T06:20:55.984Z,13.19
2022-10-02T06:21:55.944Z,13.20
2022-10-02T06:22:55.948Z,13.22
2022-10-02T06:23:55.995Z,13.22
2022-10-02T06:24:55.939Z,13.26
2022-10-02T06:25:55.923Z,13.28
2022-10-02T06:26:55.906Z,13.28
2022-10-02T06:27:55.968Z,13.28
2022-10-02T06:28:55.886Z,13.30
2022-10-02T06:29:55.867Z,13.33
2022-10-02T06:30:55.866Z,13.36
2022-10-02T06:31:55.901Z,13.33
2022-10-02T06:32:55.840Z,13.38
2022-10-02T06:33:55.834Z,13.41
2022-10-02T06:34:55.819Z,13.39
2022-10-02T06:35:55.848Z,13.42
2022-10-02T06:36:55.821Z,13.42
2022-10-02T06:37:55.780Z,13.42
2022-10-02T06:38:55.780Z,13.42
2022-10-02T06:39:55.760Z,13.44
2022-10-02T06:40:55.759Z,13.44
2022-10-02T06:41:55.840Z,13.45
2022-10-02T06:42:55.751Z,13.45
2022-10-02T06:43:55.761Z,13.46
2022-10-02T06:44:55.712Z,13.51
2022-10-02T06:45:55.724Z,13.52
2022-10-02T06:46:55.701Z,13.51
2022-10-02T06:47:55.698Z,13.54
2022-10-02T06:48:55.680Z,13.55
2022-10-02T06:49:55.654Z,13.57
2022-10-02T06:50:55.654Z,13.60
2022-10-02T06:51:55.642Z,13.62
2022-10-02T06:52:55.645Z,13.64
2022-10-02T06:53:55.617Z,13.64
2022-10-02T06:54:55.635Z,13.66
2022-10-02T06:55:55.594Z,13.67
2022-10-02T06:56:55.593Z,13.69
2022-10-02T06:57:55.635Z,13.70
2022-10-02T06:58:55.575Z,13.70
2022-10-02T06:59:55.579Z,13.69
2022-10-02T07:00:55.609Z,13.71
2022-10-02T07:01:57.419Z,13.77
2022-10-02T07:02:55.626Z,13.79
2022-10-02T07:03:55.519Z,13.79
2022-10-02T07:04:55.517Z,13.84
2022-10-02T07:05:55.498Z,13.85
2022-10-02T07:06:55.508Z,13.89
2022-10-02T07:07:55.468Z,13.92
2022-10-02T07:08:56.269Z,13.96
2022-10-02T07:09:55.739Z,13.99
2022-10-02T07:10:55.449Z,14.00
2022-10-02T07:11:55.430Z,14.06
2022-10-02T07:12:55.421Z,14.10
2022-10-02T07:13:55.402Z,14.14
2022-10-02T07:14:55.400Z,14.18
2022-10-02T07:15:55.463Z,14.21
2022-10-02T07:16:55.379Z,14.24
2022-10-02T07:17:55.371Z,14.28
2022-10-02T07:18:55.375Z,14.32
2022-10-02T07:19:55.342Z,14.35
2022-10-02T07:20:55.335Z,14.33
2022-10-02T07:21:55.320Z,14.36
2022-10-02T07:22:55.313Z,14.35
2022-10-02T07:23:58.890Z,14.39
2022-10-02T07:24:56.311Z,14.45
2022-10-02T07:25:55.274Z,14.46
2022-10-02T07:26:55.275Z,14.50
2022-10-02T07:27:55.327Z,14.47
2022-10-02T07:28:55.255Z,14.43
2022-10-02T07:29:55.243Z,14.45
2022-10-02T07:30:55.225Z,14.42
2022-10-02T07:31:55.245Z,14.40
2022-10-02T07:32:55.205Z,14.42
2022-10-02T07:33:55.205Z,14.46
2022-10-02T07:34:55.184Z,14.51
2022-10-02T07:35:55.178Z,14.57
2022-10-02T07:36:55.168Z,14.62
2022-10-02T07:37:55.168Z,14.65
2022-10-02T07:38:55.138Z,14.73
2022-10-02T07:39:55.137Z,14.78
2022-10-02T07:40:59.246Z,14.77
2022-10-02T07:41:55.111Z,14.75
2022-10-02T07:42:55.110Z,14.77
2022-10-02T07:43:55.139Z,14.78
2022-10-02T07:44:55.080Z,14.78
2022-10-02T07:45:55.803Z,14.84
2022-10-02T07:46:55.051Z,14.89
2022-10-02T07:47:55.059Z,14.89
2022-10-02T07:48:55.038Z,14.89
2022-10-02T07:49:55.032Z,14.88
2022-10-02T07:50:55.012Z,14.88
2022-10-02T07:51:55.022Z,14.84
2022-10-02T07:52:54.992Z,14.83
2022-10-02T07:53:55.028Z,14.81
2022-10-02T07:54:54.973Z,14.84
2022-10-02T07:55:54.978Z,14.88
2022-10-02T07:56:54.944Z,14.92
2022-10-02T07:57:54.955Z,14.94
2022-10-02T07:58:54.933Z,14.94
2022-10-02T07:59:55.731Z,14.99
2022-10-02T08:00:54.920Z,14.99
2022-10-02T08:01:54.964Z,15.01
2022-10-02T08:02:54.987Z,15.01
2022-10-02T08:03:55.137Z,14.98
2022-10-02T08:04:55.226Z,14.96
2022-10-02T08:05:54.856Z,14.98
2022-10-02T08:06:54.848Z,14.98
2022-10-02T08:07:54.839Z,14.98
2022-10-02T08:08:55.649Z,15.06
2022-10-02T08:09:54.859Z,15.13
2022-10-02T08:10:54.798Z,15.19
2022-10-02T08:11:54.800Z,15.23
2022-10-02T08:12:54.783Z,15.27
2022-10-02T08:13:54.779Z,15.29
2022-10-02T08:14:54.770Z,15.19
2022-10-02T08:15:54.959Z,15.10
2022-10-02T08:16:55.625Z,15.06
2022-10-02T08:17:54.779Z,15.09
2022-10-02T08:18:54.721Z,15.09
2022-10-02T08:19:54.721Z,15.10
2022-10-02T08:20:54.709Z,15.11
2022-10-02T08:21:54.693Z,15.19
2022-10-02T08:22:54.672Z,15.32
2022-10-02T08:23:54.675Z,15.46
2022-10-02T08:24:54.661Z,15.60
2022-10-02T08:25:54.651Z,15.67
2022-10-02T08:26:54.644Z,15.82
2022-10-02T08:27:54.767Z,16.02
2022-10-02T08:28:54.616Z,16.14
2022-10-02T08:29:54.606Z,16.28
2022-10-02T08:30:54.593Z,16.43
2022-10-02T08:31:54.717Z,16.60
2022-10-02T08:32:54.579Z,16.50
2022-10-02T08:33:54.565Z,16.39
2022-10-02T08:34:54.557Z,16.28
2022-10-02T08:35:54.548Z,16.31
2022-10-02T08:36:54.525Z,16.34
2022-10-02T08:37:54.527Z,16.43
2022-10-02T08:38:54.955Z,16.52
2022-10-02T08:39:54.507Z,16.52
2022-10-02T08:40:54.498Z,16.53
2022-10-02T08:41:55.017Z,16.60
2022-10-02T08:42:54.459Z,16.68
2022-10-02T08:43:54.479Z,16.78
2022-10-02T08:44:54.439Z,16.79
2022-10-02T08:45:54.509Z,16.75
2022-10-02T08:46:54.431Z,16.76
2022-10-02T08:47:54.413Z,16.78
2022-10-02T08:48:54.409Z,16.81
2022-10-02T08:49:54.401Z,16.63
2022-10-02T08:50:54.373Z,16.57
2022-10-02T08:51:54.372Z,16.53
2022-10-02T08:52:54.363Z,16.50
2022-10-02T08:53:54.361Z,16.45
2022-10-02T08:54:54.343Z,16.42
2022-10-02T08:55:54.335Z,16.35
2022-10-02T08:56:54.316Z,16.31
2022-10-02T08:57:54.493Z,16.31
2022-10-02T08:58:54.296Z,16.30
2022-10-02T08:59:54.295Z,16.27
2022-10-02T09:00:54.314Z,16.27
2022-10-02T09:01:59.569Z,16.33
2022-10-02T09:02:55.256Z,16.25
2022-10-02T09:03:54.247Z,16.23
2022-10-02T09:04:54.240Z,16.21
2022-10-02T09:05:54.226Z,16.21
2022-10-02T09:06:54.219Z,16.12
2022-10-02T09:07:54.198Z,16.05
2022-10-02T09:08:54.196Z,16.01
2022-10-02T09:09:54.185Z,16.04
2022-10-02T09:10:54.169Z,15.97
2022-10-02T09:11:54.168Z,15.96
2022-10-02T09:12:54.140Z,15.94
2022-10-02T09:13:54.189Z,15.96
2022-10-02T09:14:58.166Z,16.00
2022-10-02T09:15:54.130Z,15.96
2022-10-02T09:16:54.197Z,15.93
2022-10-02T09:17:54.116Z,15.86
2022-10-02T09:18:54.082Z,15.84
2022-10-02T09:19:54.093Z,15.90
2022-10-02T09:20:54.070Z,15.94
2022-10-02T09:21:54.053Z,15.94
2022-10-02T09:22:54.055Z,15.93
2022-10-02T09:23:54.037Z,15.89
2022-10-02T09:24:54.038Z,15.82
2022-10-02T09:25:54.022Z,15.87
2022-10-02T09:26:54.005Z,15.90
2022-10-02T09:27:54.066Z,15.92
2022-10-02T09:28:53.985Z,15.94
2022-10-02T09:29:53.975Z,16.00
2022-10-02T09:30:53.963Z,16.00
2022-10-02T09:31:54.096Z,16.04
2022-10-02T09:32:53.941Z,16.08
2022-10-02T09:33:53.941Z,16.21
2022-10-02T09:34:53.907Z,16.31
2022-10-02T09:35:53.921Z,16.42
2022-10-02T09:36:53.907Z,16.42
2022-10-02T09:37:53.898Z,16.42
2022-10-02T09:38:53.877Z,16.45
2022-10-02T09:39:53.879Z,16.49
2022-10-02T09:40:53.859Z,16.50
2022-10-02T09:41:53.858Z,16.48
2022-10-02T09:42:53.840Z,16.46
2022-10-02T09:43:53.827Z,16.46
2022-10-02T09:44:53.810Z,16.50
2022-10-02T09:45:53.971Z,16.50
2022-10-02T09:46:54.237Z,16.48
2022-10-02T09:47:55.241Z,16.49
2022-10-02T09:48:53.770Z,16.48
2022-10-02T09:49:53.762Z,16.57
2022-10-02T09:50:53.751Z,16.63
2022-10-02T09:51:53.830Z,16.70
2022-10-02T09:52:55.183Z,16.73
2022-10-02T09:53:53.722Z,16.79
2022-10-02T09:54:53.912Z,16.89
2022-10-02T09:55:54.514Z,17.03
2022-10-02T09:56:54.304Z,17.15
2022-10-02T09:57:53.684Z,17.14
2022-10-02T09:58:53.674Z,17.18
2022-10-02T09:59:54.473Z,17.19
2022-10-02T10:00:55.200Z,17.26
2022-10-02T10:01:53.692Z,17.22
2022-10-02T10:02:53.855Z,17.08
2022-10-02T10:03:53.620Z,16.97
2022-10-02T10:05:05.599Z,16.86
2022-10-02T10:05:54.597Z,16.83
2022-10-02T10:06:53.577Z,16.70
2022-10-02T10:07:53.998Z,16.63
2022-10-02T10:08:53.558Z,16.60
2022-10-02T10:09:54.378Z,16.64
2022-10-02T10:10:53.556Z,16.73
2022-10-02T10:11:53.539Z,16.75
2022-10-02T10:12:53.699Z,16.73
2022-10-02T10:13:54.321Z,16.79
2022-10-02T10:14:53.490Z,16.82
2022-10-02T10:15:53.482Z,16.86
2022-10-02T10:16:53.471Z,16.96
2022-10-02T10:17:53.473Z,17.06
2022-10-02T10:18:53.462Z,17.01
2022-10-02T10:19:53.497Z,17.11
2022-10-02T10:20:53.544Z,17.16
2022-10-02T10:21:53.494Z,17.25
2022-10-02T10:22:53.522Z,17.43
2022-10-02T10:23:53.413Z,17.72
2022-10-02T10:24:53.394Z,17.89
2022-10-02T10:25:53.400Z,17.96
2022-10-02T10:26:53.529Z,17.97
2022-10-02T10:27:53.570Z,17.87
2022-10-02T10:28:53.346Z,17.90
2022-10-02T10:29:53.397Z,17.92
2022-10-02T10:30:53.325Z,17.99
2022-10-02T10:31:53.380Z,17.99
2022-10-02T10:32:53.538Z,17.97
2022-10-02T10:33:53.297Z,17.96
2022-10-02T10:34:53.351Z,17.95
2022-10-02T10:35:53.278Z,17.86
2022-10-02T10:36:53.308Z,17.79
2022-10-02T10:37:53.257Z,17.75
2022-10-02T10:38:53.249Z,17.81
2022-10-02T10:39:53.319Z,17.89
2022-10-02T10:40:53.220Z,17.89
2022-10-02T10:41:53.600Z,17.81
2022-10-02T10:43:08.810Z,17.64
2022-10-02T10:43:54.201Z,17.54
2022-10-02T10:44:53.178Z,17.56
2022-10-02T10:45:53.284Z,17.55
2022-10-02T10:46:53.152Z,17.59
2022-10-02T10:47:53.142Z,17.63
2022-10-02T10:48:53.143Z,17.66
2022-10-02T10:49:53.133Z,17.72
2022-10-02T10:50:53.113Z,17.75
2022-10-02T10:51:53.104Z,17.77
2022-10-02T10:52:53.109Z,17.84
2022-10-02T10:53:53.086Z,17.97
2022-10-02T10:54:53.074Z,18.03
2022-10-02T10:55:53.065Z,18.11
2022-10-02T10:56:53.056Z,18.21
2022-10-02T10:57:53.043Z,18.42
2022-10-02T10:58:53.037Z,18.51
2022-10-02T10:59:53.034Z,18.47
2022-10-02T11:00:53.085Z,18.45
2022-10-02T11:01:53.062Z,18.47
2022-10-02T11:02:52.987Z,18.52
2022-10-02T11:03:53.000Z,18.55
2022-10-02T11:04:52.968Z,18.57
2022-10-02T11:05:52.967Z,18.62
2022-10-02T11:06:52.956Z,18.54
2022-10-02T11:07:52.940Z,18.54
2022-10-02T11:08:53.010Z,18.50
2022-10-02T11:09:52.950Z,18.48
2022-10-02T11:10:52.905Z,18.48
2022-10-02T11:11:52.901Z,18.47
2022-10-02T11:12:52.881Z,18.27
2022-10-02T11:13:52.882Z,18.25
2022-10-02T11:14:52.882Z,18.18
2022-10-02T11:15:52.852Z,18.08
2022-10-02T11:16:52.873Z,18.12
2022-10-02T11:17:52.842Z,18.20
2022-10-02T11:18:53.114Z,18.32
2022-10-02T11:19:52.825Z,18.45
2022-10-02T11:20:52.828Z,18.52
2022-10-02T11:21:52.808Z,18.52
2022-10-02T11:22:52.795Z,18.51
2022-10-02T11:23:52.786Z,18.51
2022-10-02T11:24:52.756Z,18.63
2022-10-02T11:25:52.754Z,18.63
2022-10-02T11:26:52.739Z,18.57
2022-10-02T11:27:52.773Z,18.39
2022-10-02T11:28:52.735Z,18.33
2022-10-02T11:29:52.723Z,18.32
2022-10-02T11:30:52.719Z,18.25
2022-10-02T11:31:52.834Z,18.11
2022-10-02T11:32:52.671Z,18.05
2022-10-02T11:33:52.667Z,17.93
2022-10-02T11:34:52.670Z,17.87
2022-10-02T11:35:52.658Z,17.79
2022-10-02T11:36:52.631Z,17.78
2022-10-02T11:37:52.631Z,17.82
2022-10-02T11:38:52.612Z,17.86
2022-10-02T11:39:52.614Z,17.77
2022-10-02T11:40:52.702Z,17.82
2022-10-02T11:41:52.594Z,17.87
2022-10-02T11:42:52.563Z,17.97
2022-10-02T11:43:52.563Z,17.92
2022-10-02T11:44:52.553Z,17.78
2022-10-02T11:45:52.583Z,17.77
2022-10-02T11:46:52.533Z,17.84
2022-10-02T11:47:52.546Z,17.95
2022-10-02T11:48:52.518Z,18.03
2022-10-02T11:49:52.498Z,18.17
2022-10-02T11:50:52.513Z,18.33
2022-10-02T11:51:52.474Z,18.33
2022-10-02T11:52:52.492Z,18.29
2022-10-02T11:53:52.457Z,18.32
2022-10-02T11:54:52.454Z,18.21
2022-10-02T11:55:52.438Z,18.08
2022-10-02T11:56:52.427Z,17.97
2022-10-02T11:57:52.418Z,17.87
2022-10-02T11:58:52.749Z,17.87
2022-10-02T11:59:52.429Z,17.89
2022-10-02T12:00:52.380Z,17.90
2022-10-02T12:01:52.431Z,17.84
2022-10-02T12:02:52.443Z,17.82
2022-10-02T12:03:52.346Z,17.81
2022-10-02T12:04:52.348Z,17.74
2022-10-02T12:05:52.322Z,17.68
2022-10-02T12:06:52.325Z,17.72
2022-10-02T12:07:52.303Z,17.81
2022-10-02T12:08:52.301Z,17.92
2022-10-02T12:09:52.301Z,17.92
2022-10-02T12:10:52.282Z,18.03
2022-10-02T12:11:52.722Z,18.14
2022-10-02T12:12:52.273Z,18.12
2022-10-02T12:13:52.244Z,18.20
2022-10-02T12:14:52.241Z,18.15
2022-10-02T12:15:52.223Z,18.03
2022-10-02T12:16:52.263Z,17.99
2022-10-02T12:17:52.195Z,18.10
2022-10-02T12:18:52.208Z,18.21
2022-10-02T12:19:52.186Z,18.47
2022-10-02T12:20:52.178Z,18.51
2022-10-02T12:21:52.156Z,18.39
2022-10-02T12:22:52.167Z,18.47
2022-10-02T12:23:52.147Z,18.78
2022-10-02T12:24:54.858Z,19.00
2022-10-02T12:25:52.118Z,18.98
2022-10-02T12:26:52.118Z,18.95
2022-10-02T12:27:52.121Z,19.08
2022-10-02T12:28:52.090Z,19.32
2022-10-02T12:29:52.653Z,19.47
2022-10-02T12:30:52.079Z,19.44
2022-10-02T12:31:52.094Z,19.46
2022-10-02T12:32:52.051Z,19.51
2022-10-02T12:33:56.431Z,19.80
2022-10-02T12:34:52.023Z,19.80
2022-10-02T12:35:52.013Z,19.83
2022-10-02T12:36:52.002Z,19.62
2022-10-02T12:37:51.990Z,19.65
2022-10-02T12:38:51.983Z,19.71
2022-10-02T12:39:51.964Z,19.44
2022-10-02T12:40:51.964Z,19.31
2022-10-02T12:41:51.977Z,19.18
2022-10-02T12:42:51.946Z,19.14
2022-10-02T12:43:51.924Z,19.13
2022-10-02T12:44:51.916Z,19.56
2022-10-02T12:45:51.983Z,19.83
2022-10-02T12:46:51.896Z,20.05
2022-10-02T12:47:51.876Z,20.10
2022-10-02T12:48:51.875Z,19.99
2022-10-02T12:49:51.859Z,19.98
2022-10-02T12:50:52.668Z,19.77
2022-10-02T12:51:51.848Z,19.56
2022-10-02T12:52:51.831Z,19.66